sensor_id;sensor_type;location;lat;lon;timestamp;temperature;humidity
4826;DHT22;2427;50.934;6.776;2022-09-16T00:01:09;12.90;99.90
4826;DHT22;2427;50.934;6.776;2022-09-16T00:03:35;12.90;99.90
4826;DHT22;2427;50.934;6.776;2022-09-16T00:06:01;12.80;99.90
4826;DHT22;2427;50.934;6.776;2022-09-16T00:08:26;12.80;99.90
4826;DHT22;2427;50.934;6.776;2022-09-16T00:10:52;12.70;1.00
4826;DHT22;2427;50.934;6.776;2022-09-16T00:13:18;12.70;1.00
4826;DHT22;2427;50.934;6.776;2022-09-16T00:15:45;12.60;1.00
4826;DHT22;2427;50.934;6.776;2022-09-16T00:18:12;12.60;1.00
4826;DHT22;2427;50.934;6.776;2022-09-16T00:20:49;12.60;1.00
4826;DHT22;2427;50.934;6.776;2022-09-16T00:23:16;12.60;1.00
4826;DHT22;2427;50.934;6.776;2022-09-16T00:25:42;12.60;1.00
4826;DHT22;2427;50.934;6.776;2022-09-16T00:28:08;12.70;1.00
4826;DHT22;2427;50.934;6.776;2022-09-16T00:30:33;12.70;1.00
4826;DHT22;2427;50.934;6.776;2022-09-16T00:32:59;12.60;1.00
4826;DHT22;2427;50.934;6.776;2022-09-16T00:35:25;12.70;1.00
4826;DHT22;2427;50.934;6.776;2022-09-16T00:37:50;12.70;1.00
4826;DHT22;2427;50.934;6.776;2022-09-16T00:40:16;12.70;1.00
4826;DHT22;2427;50.934;6.776;2022-09-16T00:42:41;12.60;1.00
4826;DHT22;2427;50.934;6.776;2022-09-16T00:45:19;12.60;1.00
4826;DHT22;2427;50.934;6.776;2022-09-16T00:48:04;12.50;1.00
4826;DHT22;2427;50.934;6.776;2022-09-16T00:50:35;12.50;1.00
4826;DHT22;2427;50.934;6.776;2022-09-16T00:53:04;12.50;1.00
4826;DHT22;2427;50.934;6.776;2022-09-16T00:55:32;12.50;1.00
4826;DHT22;2427;50.934;6.776;2022-09-16T01:11:06;12.50;99.90
4826;DHT22;2427;50.934;6.776;2022-09-16T01:13:31;12.50;1.00
4826;DHT22;2427;50.934;6.776;2022-09-16T01:16:18;12.50;28.50
4826;DHT22;2427;50.934;6.776;2022-09-16T01:19:01;12.60;1.00
4826;DHT22;2427;50.934;6.776;2022-09-16T01:21:51;12.50;1.00
4826;DHT22;2427;50.934;6.776;2022-09-16T01:24:58;12.50;1.00
4826;DHT22;2427;50.934;6.776;2022-09-16T01:27:31;12.40;66.60
4826;DHT22;2427;50.934;6.776;2022-09-16T01:32:57;12.40;92.00
4826;DHT22;2427;50.934;6.776;2022-09-16T01:35:43;12.40;99.90
4826;DHT22;2427;50.934;6.776;2022-09-16T01:40:51;12.50;99.90
4826;DHT22;2427;50.934;6.776;2022-09-16T01:46:11;12.60;41.90
4826;DHT22;2427;50.934;6.776;2022-09-16T01:48:53;12.60;36.20
4826;DHT22;2427;50.934;6.776;2022-09-16T01:51:30;12.60;1.00
4826;DHT22;2427;50.934;6.776;2022-09-16T01:54:31;12.60;46.50
4826;DHT22;2427;50.934;6.776;2022-09-16T01:57:02;12.60;99.90
4826;DHT22;2427;50.934;6.776;2022-09-16T01:59:45;12.60;99.90
4826;DHT22;2427;50.934;6.776;2022-09-16T02:04:55;12.50;99.90
4826;DHT22;2427;50.934;6.776;2022-09-16T02:07:25;12.50;99.90
4826;DHT22;2427;50.934;6.776;2022-09-16T02:09:55;12.60;99.90
4826;DHT22;2427;50.934;6.776;2022-09-16T02:12:29;12.60;99.90
4826;DHT22;2427;50.934;6.776;2022-09-16T02:15:02;12.60;99.90
4826;DHT22;2427;50.934;6.776;2022-09-16T02:17:32;12.50;99.90
4826;DHT22;2427;50.934;6.776;2022-09-16T02:20:06;12.50;99.90
4826;DHT22;2427;50.934;6.776;2022-09-16T02:22:40;12.50;99.90
4826;DHT22;2427;50.934;6.776;2022-09-16T02:25:09;12.60;1.00
4826;DHT22;2427;50.934;6.776;2022-09-16T02:27:38;12.50;1.00
4826;DHT22;2427;50.934;6.776;2022-09-16T02:30:08;12.60;1.00
4826;DHT22;2427;50.934;6.776;2022-09-16T02:32:38;12.60;99.90
4826;DHT22;2427;50.934;6.776;2022-09-16T02:35:09;12.60;99.90
4826;DHT22;2427;50.934;6.776;2022-09-16T02:37:44;12.60;1.00
4826;DHT22;2427;50.934;6.776;2022-09-16T02:40:17;12.70;99.90
4826;DHT22;2427;50.934;6.776;2022-09-16T02:42:44;12.70;99.90
4826;DHT22;2427;50.934;6.776;2022-09-16T02:45:10;12.70;99.90
4826;DHT22;2427;50.934;6.776;2022-09-16T02:50:51;12.70;1.00
4826;DHT22;2427;50.934;6.776;2022-09-16T02:58:13;12.70;1.00
4826;DHT22;2427;50.934;6.776;2022-09-16T03:00:44;12.70;99.90
4826;DHT22;2427;50.934;6.776;2022-09-16T03:03:11;12.70;99.90
4826;DHT22;2427;50.934;6.776;2022-09-16T03:05:56;12.60;1.00
4826;DHT22;2427;50.934;6.776;2022-09-16T03:08:24;12.50;1.00
4826;DHT22;2427;50.934;6.776;2022-09-16T03:10:52;12.50;1.00
4826;DHT22;2427;50.934;6.776;2022-09-16T03:13:21;12.50;1.00
4826;DHT22;2427;50.934;6.776;2022-09-16T03:18:52;12.40;99.90
4826;DHT22;2427;50.934;6.776;2022-09-16T03:21:23;12.40;99.90
4826;DHT22;2427;50.934;6.776;2022-09-16T03:24:02;12.50;1.00
4826;DHT22;2427;50.934;6.776;2022-09-16T03:26:47;12.50;1.00
4826;DHT22;2427;50.934;6.776;2022-09-16T03:34:24;12.40;99.90
4826;DHT22;2427;50.934;6.776;2022-09-16T03:36:55;12.40;23.10
4826;DHT22;2427;50.934;6.776;2022-09-16T03:39:21;12.40;99.90
4826;DHT22;2427;50.934;6.776;2022-09-16T03:41:47;12.30;99.90
4826;DHT22;2427;50.934;6.776;2022-09-16T03:44:13;12.30;1.00
4826;DHT22;2427;50.934;6.776;2022-09-16T03:46:39;12.30;99.90
4826;DHT22;2427;50.934;6.776;2022-09-16T03:49:04;12.30;1.00
4826;DHT22;2427;50.934;6.776;2022-09-16T03:51:30;12.30;1.00
4826;DHT22;2427;50.934;6.776;2022-09-16T03:53:56;12.30;1.00
4826;DHT22;2427;50.934;6.776;2022-09-16T03:56:23;12.30;1.00
4826;DHT22;2427;50.934;6.776;2022-09-16T03:58:48;12.30;76.20
4826;DHT22;2427;50.934;6.776;2022-09-16T04:01:14;12.30;99.90
4826;DHT22;2427;50.934;6.776;2022-09-16T04:03:40;12.30;99.90
4826;DHT22;2427;50.934;6.776;2022-09-16T04:06:06;12.30;99.90
4826;DHT22;2427;50.934;6.776;2022-09-16T04:08:32;12.30;99.90
4826;DHT22;2427;50.934;6.776;2022-09-16T04:11:00;12.30;40.20
4826;DHT22;2427;50.934;6.776;2022-09-16T04:13:29;12.30;62.00
4826;DHT22;2427;50.934;6.776;2022-09-16T04:15:55;12.30;1.00
4826;DHT22;2427;50.934;6.776;2022-09-16T04:18:20;12.30;45.10
4826;DHT22;2427;50.934;6.776;2022-09-16T04:20:46;12.30;99.90
4826;DHT22;2427;50.934;6.776;2022-09-16T04:23:12;12.20;7.60
4826;DHT22;2427;50.934;6.776;2022-09-16T04:25:37;12.20;99.90
4826;DHT22;2427;50.934;6.776;2022-09-16T04:28:05;12.20;99.90
4826;DHT22;2427;50.934;6.776;2022-09-16T04:30:31;12.20;1.00
4826;DHT22;2427;50.934;6.776;2022-09-16T04:32:57;12.10;1.00
4826;DHT22;2427;50.934;6.776;2022-09-16T04:35:23;12.00;99.90
4826;DHT22;2427;50.934;6.776;2022-09-16T04:37:50;12.10;99.90
4826;DHT22;2427;50.934;6.776;2022-09-16T04:40:16;12.00;99.90
4826;DHT22;2427;50.934;6.776;2022-09-16T04:42:47;11.90;1.00
4826;DHT22;2427;50.934;6.776;2022-09-16T04:45:13;11.90;1.00
4826;DHT22;2427;50.934;6.776;2022-09-16T04:47:39;11.80;99.90
4826;DHT22;2427;50.934;6.776;2022-09-16T04:50:05;11.70;1.00
4826;DHT22;2427;50.934;6.776;2022-09-16T04:52:31;11.70;99.90
4826;DHT22;2427;50.934;6.776;2022-09-16T04:54:56;11.70;99.90
4826;DHT22;2427;50.934;6.776;2022-09-16T04:57:22;11.70;78.90
4826;DHT22;2427;50.934;6.776;2022-09-16T04:59:48;11.70;99.90
4826;DHT22;2427;50.934;6.776;2022-09-16T05:02:14;11.70;99.90
4826;DHT22;2427;50.934;6.776;2022-09-16T05:04:39;11.80;1.00
4826;DHT22;2427;50.934;6.776;2022-09-16T05:07:05;11.80;1.00
4826;DHT22;2427;50.934;6.776;2022-09-16T05:09:30;11.80;99.90
4826;DHT22;2427;50.934;6.776;2022-09-16T05:11:56;11.80;1.00
4826;DHT22;2427;50.934;6.776;2022-09-16T05:14:21;11.80;99.90
4826;DHT22;2427;50.934;6.776;2022-09-16T05:16:47;11.90;11.90
4826;DHT22;2427;50.934;6.776;2022-09-16T05:19:13;11.90;1.00
4826;DHT22;2427;50.934;6.776;2022-09-16T05:21:39;12.00;1.00
4826;DHT22;2427;50.934;6.776;2022-09-16T05:24:07;11.90;1.00
4826;DHT22;2427;50.934;6.776;2022-09-16T05:26:34;12.00;1.00
4826;DHT22;2427;50.934;6.776;2022-09-16T05:29:02;12.00;1.00
4826;DHT22;2427;50.934;6.776;2022-09-16T05:31:30;12.00;1.00
4826;DHT22;2427;50.934;6.776;2022-09-16T05:34:11;12.10;1.00
4826;DHT22;2427;50.934;6.776;2022-09-16T05:36:38;12.20;99.90
4826;DHT22;2427;50.934;6.776;2022-09-16T05:39:05;12.10;99.90
4826;DHT22;2427;50.934;6.776;2022-09-16T05:41:31;12.10;99.90
4826;DHT22;2427;50.934;6.776;2022-09-16T05:43:58;12.10;1.00
4826;DHT22;2427;50.934;6.776;2022-09-16T05:46:25;12.10;99.90
4826;DHT22;2427;50.934;6.776;2022-09-16T05:48:51;12.20;99.90
4826;DHT22;2427;50.934;6.776;2022-09-16T05:51:18;12.20;99.90
4826;DHT22;2427;50.934;6.776;2022-09-16T05:53:45;12.20;99.90
4826;DHT22;2427;50.934;6.776;2022-09-16T05:56:14;12.20;99.90
4826;DHT22;2427;50.934;6.776;2022-09-16T05:58:40;12.30;50.30
4826;DHT22;2427;50.934;6.776;2022-09-16T06:01:11;12.30;1.00
4826;DHT22;2427;50.934;6.776;2022-09-16T06:03:39;12.30;1.00
4826;DHT22;2427;50.934;6.776;2022-09-16T06:06:27;12.40;1.00
4826;DHT22;2427;50.934;6.776;2022-09-16T06:08:59;12.40;1.00
4826;DHT22;2427;50.934;6.776;2022-09-16T06:11:26;12.50;1.00
4826;DHT22;2427;50.934;6.776;2022-09-16T06:13:56;12.50;1.00
4826;DHT22;2427;50.934;6.776;2022-09-16T06:16:24;12.50;1.00
4826;DHT22;2427;50.934;6.776;2022-09-16T06:18:55;12.50;1.00
4826;DHT22;2427;50.934;6.776;2022-09-16T06:21:22;12.60;1.00
4826;DHT22;2427;50.934;6.776;2022-09-16T06:23:48;12.60;1.00
4826;DHT22;2427;50.934;6.776;2022-09-16T06:26:16;12.60;1.00
4826;DHT22;2427;50.934;6.776;2022-09-16T06:28:42;12.70;1.00
4826;DHT22;2427;50.934;6.776;2022-09-16T06:31:13;12.70;99.90
4826;DHT22;2427;50.934;6.776;2022-09-16T06:33:39;12.80;99.90
4826;DHT22;2427;50.934;6.776;2022-09-16T06:36:13;12.80;99.90
4826;DHT22;2427;50.934;6.776;2022-09-16T06:38:40;12.80;99.90
4826;DHT22;2427;50.934;6.776;2022-09-16T06:41:07;12.80;99.90
4826;DHT22;2427;50.934;6.776;2022-09-16T06:43:34;12.80;99.90
4826;DHT22;2427;50.934;6.776;2022-09-16T06:46:03;12.90;1.00
4826;DHT22;2427;50.934;6.776;2022-09-16T06:48:32;12.90;1.00
4826;DHT22;2427;50.934;6.776;2022-09-16T06:51:05;13.00;1.00
4826;DHT22;2427;50.934;6.776;2022-09-16T06:53:32;13.00;1.00
4826;DHT22;2427;50.934;6.776;2022-09-16T06:56:02;13.00;1.00
4826;DHT22;2427;50.934;6.776;2022-09-16T06:58:31;13.00;1.00
4826;DHT22;2427;50.934;6.776;2022-09-16T07:00:57;13.00;1.00
4826;DHT22;2427;50.934;6.776;2022-09-16T07:03:24;13.00;1.00
4826;DHT22;2427;50.934;6.776;2022-09-16T07:05:56;13.00;1.00
4826;DHT22;2427;50.934;6.776;2022-09-16T07:08:22;13.00;1.00
4826;DHT22;2427;50.934;6.776;2022-09-16T07:10:57;13.00;1.00
4826;DHT22;2427;50.934;6.776;2022-09-16T07:13:23;13.10;1.00
4826;DHT22;2427;50.934;6.776;2022-09-16T07:15:48;13.20;1.00
4826;DHT22;2427;50.934;6.776;2022-09-16T07:18:14;13.40;1.00
4826;DHT22;2427;50.934;6.776;2022-09-16T07:20:39;13.50;99.90
4826;DHT22;2427;50.934;6.776;2022-09-16T07:23:05;13.60;99.90
4826;DHT22;2427;50.934;6.776;2022-09-16T07:25:30;13.60;99.90
4826;DHT22;2427;50.934;6.776;2022-09-16T07:27:56;13.60;99.90
4826;DHT22;2427;50.934;6.776;2022-09-16T07:30:22;13.60;99.90
4826;DHT22;2427;50.934;6.776;2022-09-16T07:32:48;13.70;99.90
4826;DHT22;2427;50.934;6.776;2022-09-16T07:35:13;13.80;1.00
4826;DHT22;2427;50.934;6.776;2022-09-16T07:37:39;13.70;99.90
4826;DHT22;2427;50.934;6.776;2022-09-16T07:40:05;13.60;1.00
4826;DHT22;2427;50.934;6.776;2022-09-16T07:42:31;13.70;1.00
4826;DHT22;2427;50.934;6.776;2022-09-16T07:44:56;13.70;99.90
4826;DHT22;2427;50.934;6.776;2022-09-16T07:47:22;13.70;99.90
4826;DHT22;2427;50.934;6.776;2022-09-16T07:49:47;13.80;99.90
4826;DHT22;2427;50.934;6.776;2022-09-16T07:52:13;13.90;99.90
4826;DHT22;2427;50.934;6.776;2022-09-16T07:54:40;14.10;99.90
4826;DHT22;2427;50.934;6.776;2022-09-16T07:57:06;14.10;99.90
4826;DHT22;2427;50.934;6.776;2022-09-16T07:59:31;14.10;99.90
4826;DHT22;2427;50.934;6.776;2022-09-16T08:01:57;14.10;99.90
4826;DHT22;2427;50.934;6.776;2022-09-16T08:04:23;14.10;42.60
4826;DHT22;2427;50.934;6.776;2022-09-16T08:06:48;14.20;75.20
4826;DHT22;2427;50.934;6.776;2022-09-16T08:09:14;14.30;58.60
4826;DHT22;2427;50.934;6.776;2022-09-16T08:11:40;14.40;26.40
4826;DHT22;2427;50.934;6.776;2022-09-16T08:14:05;14.50;33.00
4826;DHT22;2427;50.934;6.776;2022-09-16T08:16:31;14.60;1.00
4826;DHT22;2427;50.934;6.776;2022-09-16T08:18:57;14.60;1.00
4826;DHT22;2427;50.934;6.776;2022-09-16T08:21:25;14.70;1.00
4826;DHT22;2427;50.934;6.776;2022-09-16T08:23:53;14.70;1.00
4826;DHT22;2427;50.934;6.776;2022-09-16T08:26:19;14.60;1.00
4826;DHT22;2427;50.934;6.776;2022-09-16T08:28:46;14.70;1.00
4826;DHT22;2427;50.934;6.776;2022-09-16T08:31:13;14.70;1.00
4826;DHT22;2427;50.934;6.776;2022-09-16T08:33:40;14.70;1.00
4826;DHT22;2427;50.934;6.776;2022-09-16T08:36:11;14.70;1.00
4826;DHT22;2427;50.934;6.776;2022-09-16T08:38:38;14.80;1.00
4826;DHT22;2427;50.934;6.776;2022-09-16T08:41:14;14.80;1.00
4826;DHT22;2427;50.934;6.776;2022-09-16T08:43:57;14.90;1.00
4826;DHT22;2427;50.934;6.776;2022-09-16T08:46:33;14.90;1.00
4826;DHT22;2427;50.934;6.776;2022-09-16T08:52:11;15.20;1.00
4826;DHT22;2427;50.934;6.776;2022-09-16T08:54:51;15.20;1.00
4826;DHT22;2427;50.934;6.776;2022-09-16T08:57:21;15.10;1.00
4826;DHT22;2427;50.934;6.776;2022-09-16T08:59:51;14.90;1.00
4826;DHT22;2427;50.934;6.776;2022-09-16T09:10:41;15.00;1.00
4826;DHT22;2427;50.934;6.776;2022-09-16T09:13:23;15.20;1.00
4826;DHT22;2427;50.934;6.776;2022-09-16T09:16:27;15.30;1.00
4826;DHT22;2427;50.934;6.776;2022-09-16T09:19:06;15.40;1.00
4826;DHT22;2427;50.934;6.776;2022-09-16T09:21:47;15.50;1.00
4826;DHT22;2427;50.934;6.776;2022-09-16T09:24:47;15.50;1.00
4826;DHT22;2427;50.934;6.776;2022-09-16T09:41:33;15.90;1.00
4826;DHT22;2427;50.934;6.776;2022-09-16T09:44:44;15.90;1.00
4826;DHT22;2427;50.934;6.776;2022-09-16T09:47:15;15.80;1.00
4826;DHT22;2427;50.934;6.776;2022-09-16T09:49:49;15.80;1.00
4826;DHT22;2427;50.934;6.776;2022-09-16T09:52:23;15.80;1.00
4826;DHT22;2427;50.934;6.776;2022-09-16T09:54:51;15.90;1.00
4826;DHT22;2427;50.934;6.776;2022-09-16T10:00:17;15.80;1.00
4826;DHT22;2427;50.934;6.776;2022-09-16T10:02:45;15.80;1.00
4826;DHT22;2427;50.934;6.776;2022-09-16T10:05:21;15.70;1.00
4826;DHT22;2427;50.934;6.776;2022-09-16T10:07:47;15.80;1.00
4826;DHT22;2427;50.934;6.776;2022-09-16T10:10:16;16.00;1.00
4826;DHT22;2427;50.934;6.776;2022-09-16T10:12:43;16.20;1.00
4826;DHT22;2427;50.934;6.776;2022-09-16T10:15:26;16.50;99.90
4826;DHT22;2427;50.934;6.776;2022-09-16T10:17:53;16.50;99.90
4826;DHT22;2427;50.934;6.776;2022-09-16T10:20:22;16.40;99.90
4826;DHT22;2427;50.934;6.776;2022-09-16T10:23:03;16.50;99.90
4826;DHT22;2427;50.934;6.776;2022-09-16T10:25:30;16.70;99.90
4826;DHT22;2427;50.934;6.776;2022-09-16T10:28:01;16.70;99.90
4826;DHT22;2427;50.934;6.776;2022-09-16T10:30:32;16.70;99.90
4826;DHT22;2427;50.934;6.776;2022-09-16T10:33:13;16.60;99.90
4826;DHT22;2427;50.934;6.776;2022-09-16T10:35:51;16.70;99.90
4826;DHT22;2427;50.934;6.776;2022-09-16T10:38:21;16.70;99.90
4826;DHT22;2427;50.934;6.776;2022-09-16T10:40:55;16.90;99.90
4826;DHT22;2427;50.934;6.776;2022-09-16T10:43:27;17.00;99.90
4826;DHT22;2427;50.934;6.776;2022-09-16T10:45:54;17.00;99.90
4826;DHT22;2427;50.934;6.776;2022-09-16T10:48:23;17.20;99.90
4826;DHT22;2427;50.934;6.776;2022-09-16T10:51:00;17.30;99.90
4826;DHT22;2427;50.934;6.776;2022-09-16T10:53:37;17.10;99.90
4826;DHT22;2427;50.934;6.776;2022-09-16T10:56:06;17.00;99.90
4826;DHT22;2427;50.934;6.776;2022-09-16T10:58:32;17.10;99.90
4826;DHT22;2427;50.934;6.776;2022-09-16T11:18:12;17.50;99.90
4826;DHT22;2427;50.934;6.776;2022-09-16T11:24:19;17.70;99.90
4826;DHT22;2427;50.934;6.776;2022-09-16T11:27:23;17.50;99.90
4826;DHT22;2427;50.934;6.776;2022-09-16T11:30:08;17.10;99.90
4826;DHT22;2427;50.934;6.776;2022-09-16T11:33:12;17.40;99.90
4826;DHT22;2427;50.934;6.776;2022-09-16T11:36:07;17.90;99.90
4826;DHT22;2427;50.934;6.776;2022-09-16T11:39:00;18.30;99.90
4826;DHT22;2427;50.934;6.776;2022-09-16T11:44:45;18.10;99.90
4826;DHT22;2427;50.934;6.776;2022-09-16T11:47:19;17.70;99.90
4826;DHT22;2427;50.934;6.776;2022-09-16T11:53:00;16.90;99.90
4826;DHT22;2427;50.934;6.776;2022-09-16T11:55:52;16.60;99.90
4826;DHT22;2427;50.934;6.776;2022-09-16T11:59:40;16.50;99.90
4826;DHT22;2427;50.934;6.776;2022-09-16T12:04:34;16.10;99.90
4826;DHT22;2427;50.934;6.776;2022-09-16T12:07:25;16.10;99.90
4826;DHT22;2427;50.934;6.776;2022-09-16T12:10:07;16.60;99.90
4826;DHT22;2427;50.934;6.776;2022-09-16T12:12:47;16.90;99.90
4826;DHT22;2427;50.934;6.776;2022-09-16T12:15:25;17.30;99.90
4826;DHT22;2427;50.934;6.776;2022-09-16T12:17:58;17.10;99.90
4826;DHT22;2427;50.934;6.776;2022-09-16T12:20:27;16.50;99.90
4826;DHT22;2427;50.934;6.776;2022-09-16T12:23:01;16.20;99.90
4826;DHT22;2427;50.934;6.776;2022-09-16T12:25:33;16.10;1.00
4826;DHT22;2427;50.934;6.776;2022-09-16T12:28:07;15.90;1.00
4826;DHT22;2427;50.934;6.776;2022-09-16T12:30:40;15.60;1.00
4826;DHT22;2427;50.934;6.776;2022-09-16T12:33:17;15.20;99.90
4826;DHT22;2427;50.934;6.776;2022-09-16T12:36:09;14.40;1.00
4826;DHT22;2427;50.934;6.776;2022-09-16T12:38:36;13.50;1.00
4826;DHT22;2427;50.934;6.776;2022-09-16T12:42:05;13.10;99.90
4826;DHT22;2427;50.934;6.776;2022-09-16T12:50:25;12.70;1.00
4826;DHT22;2427;50.934;6.776;2022-09-16T12:55:52;12.70;99.90
4826;DHT22;2427;50.934;6.776;2022-09-16T12:58:47;12.60;99.90
4826;DHT22;2427;50.934;6.776;2022-09-16T13:03:49;12.40;1.00
4826;DHT22;2427;50.934;6.776;2022-09-16T13:06:32;12.40;1.00
4826;DHT22;2427;50.934;6.776;2022-09-16T13:09:19;12.30;1.00
4826;DHT22;2427;50.934;6.776;2022-09-16T13:12:01;12.20;1.00
4826;DHT22;2427;50.934;6.776;2022-09-16T13:14:30;12.20;1.00
4826;DHT22;2427;50.934;6.776;2022-09-16T13:16:58;12.20;1.00
4826;DHT22;2427;50.934;6.776;2022-09-16T13:21:59;12.20;1.00
4826;DHT22;2427;50.934;6.776;2022-09-16T13:24:37;12.10;1.00
4826;DHT22;2427;50.934;6.776;2022-09-16T13:27:33;11.90;91.50
4826;DHT22;2427;50.934;6.776;2022-09-16T13:37:50;12.10;99.90
4826;DHT22;2427;50.934;6.776;2022-09-16T13:40:36;12.40;1.00
4826;DHT22;2427;50.934;6.776;2022-09-16T13:45:41;13.70;1.00
4826;DHT22;2427;50.934;6.776;2022-09-16T13:48:13;13.90;99.90
4826;DHT22;2427;50.934;6.776;2022-09-16T13:50:56;14.20;1.00
4826;DHT22;2427;50.934;6.776;2022-09-16T13:53:31;14.30;1.00
4826;DHT22;2427;50.934;6.776;2022-09-16T13:59:09;14.10;1.00
4826;DHT22;2427;50.934;6.776;2022-09-16T14:02:03;14.10;1.00
4826;DHT22;2427;50.934;6.776;2022-09-16T14:07:55;15.80;99.90
4826;DHT22;2427;50.934;6.776;2022-09-16T14:10:46;18.30;1.00
4826;DHT22;2427;50.934;6.776;2022-09-16T14:13:18;20.80;1.00
4826;DHT22;2427;50.934;6.776;2022-09-16T14:15:50;22.00;99.90
4826;DHT22;2427;50.934;6.776;2022-09-16T14:18:20;23.10;99.90
4826;DHT22;2427;50.934;6.776;2022-09-16T14:21:00;23.50;99.90
4826;DHT22;2427;50.934;6.776;2022-09-16T14:23:26;24.90;99.90
4826;DHT22;2427;50.934;6.776;2022-09-16T14:25:52;25.10;99.90
4826;DHT22;2427;50.934;6.776;2022-09-16T14:28:19;24.90;99.90
4826;DHT22;2427;50.934;6.776;2022-09-16T14:30:56;23.60;99.90
4826;DHT22;2427;50.934;6.776;2022-09-16T14:33:27;22.90;99.90
4826;DHT22;2427;50.934;6.776;2022-09-16T14:35:54;21.60;99.90
4826;DHT22;2427;50.934;6.776;2022-09-16T14:38:26;20.00;99.90
4826;DHT22;2427;50.934;6.776;2022-09-16T14:40:55;18.80;99.90
4826;DHT22;2427;50.934;6.776;2022-09-16T14:43:21;17.60;1.00
4826;DHT22;2427;50.934;6.776;2022-09-16T14:45:52;16.90;1.00
4826;DHT22;2427;50.934;6.776;2022-09-16T14:48:26;16.50;1.00
4826;DHT22;2427;50.934;6.776;2022-09-16T14:50:52;15.90;1.00
4826;DHT22;2427;50.934;6.776;2022-09-16T14:53:32;15.50;1.00
4826;DHT22;2427;50.934;6.776;2022-09-16T14:56:00;15.30;1.00
4826;DHT22;2427;50.934;6.776;2022-09-16T14:58:28;15.20;1.00
4826;DHT22;2427;50.934;6.776;2022-09-16T15:01:02;15.50;1.00
4826;DHT22;2427;50.934;6.776;2022-09-16T15:03:51;15.40;1.00
4826;DHT22;2427;50.934;6.776;2022-09-16T15:06:23;15.50;1.00
4826;DHT22;2427;50.934;6.776;2022-09-16T15:08:59;15.30;1.00
4826;DHT22;2427;50.934;6.776;2022-09-16T15:11:44;15.20;1.00
4826;DHT22;2427;50.934;6.776;2022-09-16T15:14:11;15.10;1.00
4826;DHT22;2427;50.934;6.776;2022-09-16T15:16:45;15.10;1.00
4826;DHT22;2427;50.934;6.776;2022-09-16T15:19:18;15.20;1.00
4826;DHT22;2427;50.934;6.776;2022-09-16T15:21:46;15.30;1.00
4826;DHT22;2427;50.934;6.776;2022-09-16T15:24:19;15.50;1.00
4826;DHT22;2427;50.934;6.776;2022-09-16T15:26:45;15.90;1.00
4826;DHT22;2427;50.934;6.776;2022-09-16T15:31:43;17.10;1.00
4826;DHT22;2427;50.934;6.776;2022-09-16T15:36:54;16.00;1.00
4826;DHT22;2427;50.934;6.776;2022-09-16T15:39:25;15.40;1.00
4826;DHT22;2427;50.934;6.776;2022-09-16T15:44:41;14.50;1.00
4826;DHT22;2427;50.934;6.776;2022-09-16T15:47:16;14.30;1.00
4826;DHT22;2427;50.934;6.776;2022-09-16T15:49:42;14.00;32.20
4826;DHT22;2427;50.934;6.776;2022-09-16T15:52:09;13.90;52.90
4826;DHT22;2427;50.934;6.776;2022-09-16T15:54:49;13.80;20.50
4826;DHT22;2427;50.934;6.776;2022-09-16T16:02:41;13.70;99.90
4826;DHT22;2427;50.934;6.776;2022-09-16T16:05:17;13.90;99.90
4826;DHT22;2427;50.934;6.776;2022-09-16T16:07:49;14.00;39.50
4826;DHT22;2427;50.934;6.776;2022-09-16T16:10:25;13.90;56.00
4826;DHT22;2427;50.934;6.776;2022-09-16T16:12:52;13.90;99.90
4826;DHT22;2427;50.934;6.776;2022-09-16T16:15:26;13.80;99.90
4826;DHT22;2427;50.934;6.776;2022-09-16T16:17:53;13.70;99.90
4826;DHT22;2427;50.934;6.776;2022-09-16T16:20:22;13.50;18.80
4826;DHT22;2427;50.934;6.776;2022-09-16T16:22:48;13.40;99.90
4826;DHT22;2427;50.934;6.776;2022-09-16T16:25:14;13.30;99.90
4826;DHT22;2427;50.934;6.776;2022-09-16T16:27:40;13.30;99.90
4826;DHT22;2427;50.934;6.776;2022-09-16T16:30:06;13.30;99.90
4826;DHT22;2427;50.934;6.776;2022-09-16T16:32:32;13.30;99.90
4826;DHT22;2427;50.934;6.776;2022-09-16T16:34:59;13.10;99.90
4826;DHT22;2427;50.934;6.776;2022-09-16T16:37:25;13.10;99.90
4826;DHT22;2427;50.934;6.776;2022-09-16T16:39:51;13.10;99.90
4826;DHT22;2427;50.934;6.776;2022-09-16T16:42:17;13.00;99.90
4826;DHT22;2427;50.934;6.776;2022-09-16T16:44:43;12.90;99.90
4826;DHT22;2427;50.934;6.776;2022-09-16T16:47:09;12.70;99.90
4826;DHT22;2427;50.934;6.776;2022-09-16T16:49:35;12.70;99.90
4826;DHT22;2427;50.934;6.776;2022-09-16T16:52:03;12.70;99.90
4826;DHT22;2427;50.934;6.776;2022-09-16T16:54:29;12.70;99.90
4826;DHT22;2427;50.934;6.776;2022-09-16T16:56:55;12.70;1.00
4826;DHT22;2427;50.934;6.776;2022-09-16T16:59:21;12.60;1.00
4826;DHT22;2427;50.934;6.776;2022-09-16T17:01:50;12.60;1.00
4826;DHT22;2427;50.934;6.776;2022-09-16T17:04:15;12.60;1.00
4826;DHT22;2427;50.934;6.776;2022-09-16T17:06:41;12.60;1.00
4826;DHT22;2427;50.934;6.776;2022-09-16T17:09:08;12.60;1.00
4826;DHT22;2427;50.934;6.776;2022-09-16T17:11:34;12.60;1.00
4826;DHT22;2427;50.934;6.776;2022-09-16T17:14:04;12.60;1.00
4826;DHT22;2427;50.934;6.776;2022-09-16T17:16:32;12.50;1.00
4826;DHT22;2427;50.934;6.776;2022-09-16T17:18:59;12.40;1.00
4826;DHT22;2427;50.934;6.776;2022-09-16T17:21:30;12.40;1.00
4826;DHT22;2427;50.934;6.776;2022-09-16T17:23:57;12.30;1.00
4826;DHT22;2427;50.934;6.776;2022-09-16T17:26:23;12.20;1.00
4826;DHT22;2427;50.934;6.776;2022-09-16T17:28:50;12.10;1.00
4826;DHT22;2427;50.934;6.776;2022-09-16T17:31:30;12.00;6.10
4826;DHT22;2427;50.934;6.776;2022-09-16T17:33:58;12.00;99.90
4826;DHT22;2427;50.934;6.776;2022-09-16T17:36:27;11.90;99.90
4826;DHT22;2427;50.934;6.776;2022-09-16T17:38:57;11.80;99.90
4826;DHT22;2427;50.934;6.776;2022-09-16T17:41:24;11.70;99.90
4826;DHT22;2427;50.934;6.776;2022-09-16T17:43:52;11.70;1.00
4826;DHT22;2427;50.934;6.776;2022-09-16T17:46:18;11.70;1.00
4826;DHT22;2427;50.934;6.776;2022-09-16T17:48:45;11.70;1.00
4826;DHT22;2427;50.934;6.776;2022-09-16T17:51:11;11.60;1.00
4826;DHT22;2427;50.934;6.776;2022-09-16T17:53:37;11.60;1.00
4826;DHT22;2427;50.934;6.776;2022-09-16T17:56:14;11.50;1.00
4826;DHT22;2427;50.934;6.776;2022-09-16T17:58:42;11.40;1.00
4826;DHT22;2427;50.934;6.776;2022-09-16T18:01:16;11.40;1.00
4826;DHT22;2427;50.934;6.776;2022-09-16T18:03:44;11.30;1.00
4826;DHT22;2427;50.934;6.776;2022-09-16T18:06:12;11.30;7.80
4826;DHT22;2427;50.934;6.776;2022-09-16T18:08:40;11.20;22.80
4826;DHT22;2427;50.934;6.776;2022-09-16T18:11:07;11.20;99.90
4826;DHT22;2427;50.934;6.776;2022-09-16T18:13:33;11.20;99.90
4826;DHT22;2427;50.934;6.776;2022-09-16T18:16:13;11.10;99.90
4826;DHT22;2427;50.934;6.776;2022-09-16T18:18:40;11.10;99.90
4826;DHT22;2427;50.934;6.776;2022-09-16T18:21:09;11.00;1.00
4826;DHT22;2427;50.934;6.776;2022-09-16T18:23:35;11.00;1.00
4826;DHT22;2427;50.934;6.776;2022-09-16T18:26:05;11.00;1.00
4826;DHT22;2427;50.934;6.776;2022-09-16T18:28:37;10.90;1.00
4826;DHT22;2427;50.934;6.776;2022-09-16T18:31:05;10.90;1.00
4826;DHT22;2427;50.934;6.776;2022-09-16T18:33:32;10.80;99.90
4826;DHT22;2427;50.934;6.776;2022-09-16T18:36:04;10.90;99.90
4826;DHT22;2427;50.934;6.776;2022-09-16T18:38:31;10.80;99.90
4826;DHT22;2427;50.934;6.776;2022-09-16T18:41:07;10.80;99.90
4826;DHT22;2427;50.934;6.776;2022-09-16T18:43:34;10.80;1.00
4826;DHT22;2427;50.934;6.776;2022-09-16T18:48:36;10.80;1.00
4826;DHT22;2427;50.934;6.776;2022-09-16T18:51:02;10.80;1.00
4826;DHT22;2427;50.934;6.776;2022-09-16T18:53:28;10.80;99.90
4826;DHT22;2427;50.934;6.776;2022-09-16T18:55:55;10.80;91.70
4826;DHT22;2427;50.934;6.776;2022-09-16T18:58:21;10.70;98.20
4826;DHT22;2427;50.934;6.776;2022-09-16T19:00:46;10.80;99.90